sensor_id;sensor_type;location;lat;lon;timestamp;P1;durP1;ratioP1;P2;durP2;ratioP2
10056;SDS011;5068;51.286;7.518;2022-07-05T00:01:06;1.27;;;1.10;;
10056;SDS011;5068;51.286;7.518;2022-07-05T00:02:41;1.13;;;1.03;;
10056;SDS011;5068;51.286;7.518;2022-07-05T00:04:15;1.77;;;1.02;;
10056;SDS011;5068;51.286;7.518;2022-07-05T00:05:48;1.83;;;1.17;;
10056;SDS011;5068;51.286;7.518;2022-07-05T00:07:22;2.67;;;1.37;;
10056;SDS011;5068;51.286;7.518;2022-07-05T00:08:56;2.27;;;1.00;;
10056;SDS011;5068;51.286;7.518;2022-07-05T00:10:29;3.77;;;1.07;;
10056;SDS011;5068;51.286;7.518;2022-07-05T00:12:02;1.30;;;1.20;;
10056;SDS011;5068;51.286;7.518;2022-07-05T00:13:36;2.30;;;1.00;;
10056;SDS011;5068;51.286;7.518;2022-07-05T00:15:10;3.63;;;1.30;;
10056;SDS011;5068;51.286;7.518;2022-07-05T00:16:42;0.90;;;0.90;;
10056;SDS011;5068;51.286;7.518;2022-07-05T00:18:17;1.90;;;1.03;;
10056;SDS011;5068;51.286;7.518;2022-07-05T00:19:50;1.57;;;0.97;;
10056;SDS011;5068;51.286;7.518;2022-07-05T00:21:24;1.00;;;1.00;;
10056;SDS011;5068;51.286;7.518;2022-07-05T00:22:57;2.10;;;1.07;;
10056;SDS011;5068;51.286;7.518;2022-07-05T00:24:31;1.40;;;1.10;;
10056;SDS011;5068;51.286;7.518;2022-07-05T00:26:04;2.03;;;1.10;;
10056;SDS011;5068;51.286;7.518;2022-07-05T00:27:37;1.30;;;1.20;;
10056;SDS011;5068;51.286;7.518;2022-07-05T00:29:10;2.93;;;1.37;;
10056;SDS011;5068;51.286;7.518;2022-07-05T00:30:43;1.20;;;1.03;;
10056;SDS011;5068;51.286;7.518;2022-07-05T00:32:17;1.13;;;1.03;;
10056;SDS011;5068;51.286;7.518;2022-07-05T00:33:52;1.77;;;1.20;;
10056;SDS011;5068;51.286;7.518;2022-07-05T00:35:25;1.33;;;1.13;;
10056;SDS011;5068;51.286;7.518;2022-07-05T00:36:59;1.47;;;1.10;;
10056;SDS011;5068;51.286;7.518;2022-07-05T00:38:33;1.57;;;1.27;;
10056;SDS011;5068;51.286;7.518;2022-07-05T00:40:07;1.73;;;0.93;;
10056;SDS011;5068;51.286;7.518;2022-07-05T00:41:40;1.20;;;1.10;;
10056;SDS011;5068;51.286;7.518;2022-07-05T00:43:14;1.47;;;1.10;;
10056;SDS011;5068;51.286;7.518;2022-07-05T00:44:48;0.90;;;0.90;;
10056;SDS011;5068;51.286;7.518;2022-07-05T00:46:21;1.47;;;1.07;;
10056;SDS011;5068;51.286;7.518;2022-07-05T00:47:55;1.17;;;0.70;;
10056;SDS011;5068;51.286;7.518;2022-07-05T00:49:30;2.70;;;1.10;;
10056;SDS011;5068;51.286;7.518;2022-07-05T00:51:05;0.87;;;0.87;;
10056;SDS011;5068;51.286;7.518;2022-07-05T00:52:38;1.37;;;1.23;;
10056;SDS011;5068;51.286;7.518;2022-07-05T00:54:12;1.97;;;0.90;;
10056;SDS011;5068;51.286;7.518;2022-07-05T00:55:47;2.47;;;1.10;;
10056;SDS011;5068;51.286;7.518;2022-07-05T00:57:20;2.43;;;1.20;;
10056;SDS011;5068;51.286;7.518;2022-07-05T00:58:54;0.83;;;0.83;;
10056;SDS011;5068;51.286;7.518;2022-07-05T01:00:29;1.17;;;0.90;;
10056;SDS011;5068;51.286;7.518;2022-07-05T01:02:12;1.30;;;1.10;;
10056;SDS011;5068;51.286;7.518;2022-07-05T01:03:54;1.03;;;0.90;;
10056;SDS011;5068;51.286;7.518;2022-07-05T01:05:31;0.93;;;0.93;;
10056;SDS011;5068;51.286;7.518;2022-07-05T01:07:10;1.40;;;1.20;;
10056;SDS011;5068;51.286;7.518;2022-07-05T01:08:46;0.93;;;0.70;;
10056;SDS011;5068;51.286;7.518;2022-07-05T01:10:22;1.43;;;1.00;;
10056;SDS011;5068;51.286;7.518;2022-07-05T01:11:59;1.87;;;1.03;;
10056;SDS011;5068;51.286;7.518;2022-07-05T01:13:34;2.83;;;1.10;;
10056;SDS011;5068;51.286;7.518;2022-07-05T01:15:09;1.93;;;1.13;;
10056;SDS011;5068;51.286;7.518;2022-07-05T01:16:44;1.60;;;1.30;;
10056;SDS011;5068;51.286;7.518;2022-07-05T01:18:18;2.47;;;1.20;;
10056;SDS011;5068;51.286;7.518;2022-07-05T01:19:56;1.73;;;1.20;;
10056;SDS011;5068;51.286;7.518;2022-07-05T01:21:32;1.57;;;0.90;;
10056;SDS011;5068;51.286;7.518;2022-07-05T01:23:11;1.50;;;0.97;;
10056;SDS011;5068;51.286;7.518;2022-07-05T01:24:46;2.87;;;1.20;;
10056;SDS011;5068;51.286;7.518;2022-07-05T01:26:20;1.87;;;1.10;;
10056;SDS011;5068;51.286;7.518;2022-07-05T01:27:54;1.40;;;1.10;;
10056;SDS011;5068;51.286;7.518;2022-07-05T01:29:30;2.03;;;1.10;;
10056;SDS011;5068;51.286;7.518;2022-07-05T01:31:03;1.70;;;1.20;;
10056;SDS011;5068;51.286;7.518;2022-07-05T01:32:37;1.43;;;0.90;;
10056;SDS011;5068;51.286;7.518;2022-07-05T01:34:10;2.10;;;1.30;;
10056;SDS011;5068;51.286;7.518;2022-07-05T01:35:44;1.90;;;1.10;;
10056;SDS011;5068;51.286;7.518;2022-07-05T01:37:18;1.43;;;1.07;;
10056;SDS011;5068;51.286;7.518;2022-07-05T01:38:53;1.43;;;1.07;;
10056;SDS011;5068;51.286;7.518;2022-07-05T01:40:26;1.10;;;1.03;;
10056;SDS011;5068;51.286;7.518;2022-07-05T01:41:59;1.47;;;1.30;;
10056;SDS011;5068;51.286;7.518;2022-07-05T01:43:33;2.10;;;1.27;;
10056;SDS011;5068;51.286;7.518;2022-07-05T01:45:07;1.13;;;1.00;;
10056;SDS011;5068;51.286;7.518;2022-07-05T01:46:41;2.63;;;1.13;;
10056;SDS011;5068;51.286;7.518;2022-07-05T01:48:16;3.63;;;1.30;;
10056;SDS011;5068;51.286;7.518;2022-07-05T01:49:54;2.23;;;1.20;;
10056;SDS011;5068;51.286;7.518;2022-07-05T01:51:33;1.23;;;1.03;;
10056;SDS011;5068;51.286;7.518;2022-07-05T01:53:14;2.33;;;1.07;;
10056;SDS011;5068;51.286;7.518;2022-07-05T01:54:54;1.30;;;1.20;;
10056;SDS011;5068;51.286;7.518;2022-07-05T01:56:28;1.27;;;1.03;;
10056;SDS011;5068;51.286;7.518;2022-07-05T01:58:01;1.60;;;1.20;;
10056;SDS011;5068;51.286;7.518;2022-07-05T01:59:35;2.50;;;1.20;;
10056;SDS011;5068;51.286;7.518;2022-07-05T02:01:09;2.43;;;1.03;;
10056;SDS011;5068;51.286;7.518;2022-07-05T02:02:44;2.70;;;1.40;;
10056;SDS011;5068;51.286;7.518;2022-07-05T02:04:19;1.20;;;1.10;;
10056;SDS011;5068;51.286;7.518;2022-07-05T02:05:54;2.07;;;1.10;;
10056;SDS011;5068;51.286;7.518;2022-07-05T02:07:26;2.67;;;1.23;;
10056;SDS011;5068;51.286;7.518;2022-07-05T02:09:02;1.13;;;1.00;;
10056;SDS011;5068;51.286;7.518;2022-07-05T02:10:39;1.20;;;1.10;;
10056;SDS011;5068;51.286;7.518;2022-07-05T02:12:14;2.37;;;1.37;;
10056;SDS011;5068;51.286;7.518;2022-07-05T02:13:47;1.37;;;1.10;;
10056;SDS011;5068;51.286;7.518;2022-07-05T02:15:21;1.37;;;1.00;;
10056;SDS011;5068;51.286;7.518;2022-07-05T02:16:54;1.30;;;1.00;;
10056;SDS011;5068;51.286;7.518;2022-07-05T02:18:29;2.07;;;1.10;;
10056;SDS011;5068;51.286;7.518;2022-07-05T02:20:04;1.73;;;1.30;;
10056;SDS011;5068;51.286;7.518;2022-07-05T02:21:39;2.57;;;1.23;;
10056;SDS011;5068;51.286;7.518;2022-07-05T02:23:17;1.37;;;1.23;;
10056;SDS011;5068;51.286;7.518;2022-07-05T02:24:51;2.00;;;1.10;;
10056;SDS011;5068;51.286;7.518;2022-07-05T02:26:29;1.23;;;1.00;;
10056;SDS011;5068;51.286;7.518;2022-07-05T02:28:03;1.90;;;1.00;;
10056;SDS011;5068;51.286;7.518;2022-07-05T02:29:38;1.83;;;1.60;;
10056;SDS011;5068;51.286;7.518;2022-07-05T02:31:13;1.40;;;1.30;;
10056;SDS011;5068;51.286;7.518;2022-07-05T02:32:48;1.43;;;1.30;;
10056;SDS011;5068;51.286;7.518;2022-07-05T02:34:22;2.03;;;1.20;;
10056;SDS011;5068;51.286;7.518;2022-07-05T02:35:55;3.23;;;1.20;;
10056;SDS011;5068;51.286;7.518;2022-07-05T02:37:29;1.73;;;1.20;;
10056;SDS011;5068;51.286;7.518;2022-07-05T02:39:05;1.53;;;1.40;;
10056;SDS011;5068;51.286;7.518;2022-07-05T02:40:39;1.60;;;1.20;;
10056;SDS011;5068;51.286;7.518;2022-07-05T02:42:14;2.17;;;1.43;;
10056;SDS011;5068;51.286;7.518;2022-07-05T02:43:49;1.60;;;1.30;;
10056;SDS011;5068;51.286;7.518;2022-07-05T02:45:29;1.53;;;1.37;;
10056;SDS011;5068;51.286;7.518;2022-07-05T02:47:04;2.53;;;1.30;;
10056;SDS011;5068;51.286;7.518;2022-07-05T02:48:38;1.60;;;1.17;;
10056;SDS011;5068;51.286;7.518;2022-07-05T02:50:12;2.30;;;1.13;;
10056;SDS011;5068;51.286;7.518;2022-07-05T02:51:49;1.70;;;1.30;;
10056;SDS011;5068;51.286;7.518;2022-07-05T02:53:23;1.63;;;1.20;;
10056;SDS011;5068;51.286;7.518;2022-07-05T02:54:56;2.20;;;1.10;;
10056;SDS011;5068;51.286;7.518;2022-07-05T02:56:30;2.10;;;1.23;;
10056;SDS011;5068;51.286;7.518;2022-07-05T02:58:05;1.47;;;1.20;;
10056;SDS011;5068;51.286;7.518;2022-07-05T03:01:51;2.93;;;1.27;;
10056;SDS011;5068;51.286;7.518;2022-07-05T03:03:25;1.77;;;1.30;;
10056;SDS011;5068;51.286;7.518;2022-07-05T03:04:58;1.17;;;1.10;;
10056;SDS011;5068;51.286;7.518;2022-07-05T03:06:32;2.50;;;1.20;;
10056;SDS011;5068;51.286;7.518;2022-07-05T03:08:06;3.27;;;1.20;;
10056;SDS011;5068;51.286;7.518;2022-07-05T03:09:41;2.83;;;1.20;;
10056;SDS011;5068;51.286;7.518;2022-07-05T03:11:16;1.30;;;1.20;;
10056;SDS011;5068;51.286;7.518;2022-07-05T03:12:51;1.37;;;1.27;;
10056;SDS011;5068;51.286;7.518;2022-07-05T03:14:26;1.47;;;1.37;;
10056;SDS011;5068;51.286;7.518;2022-07-05T03:16:00;1.20;;;1.10;;
10056;SDS011;5068;51.286;7.518;2022-07-05T03:17:33;1.70;;;1.27;;
10056;SDS011;5068;51.286;7.518;2022-07-05T03:19:08;1.50;;;1.10;;
10056;SDS011;5068;51.286;7.518;2022-07-05T03:20:43;1.30;;;1.17;;
10056;SDS011;5068;51.286;7.518;2022-07-05T03:22:18;2.30;;;1.10;;
10056;SDS011;5068;51.286;7.518;2022-07-05T03:23:51;1.87;;;1.20;;
10056;SDS011;5068;51.286;7.518;2022-07-05T03:25:25;1.23;;;1.00;;
10056;SDS011;5068;51.286;7.518;2022-07-05T03:26:59;1.90;;;1.20;;
10056;SDS011;5068;51.286;7.518;2022-07-05T03:28:33;1.23;;;1.10;;
10056;SDS011;5068;51.286;7.518;2022-07-05T03:30:09;2.07;;;1.27;;
10056;SDS011;5068;51.286;7.518;2022-07-05T03:31:44;1.03;;;1.00;;
10056;SDS011;5068;51.286;7.518;2022-07-05T03:33:18;1.73;;;1.40;;
10056;SDS011;5068;51.286;7.518;2022-07-05T03:34:52;2.20;;;1.37;;
10056;SDS011;5068;51.286;7.518;2022-07-05T03:36:26;1.67;;;1.07;;
10056;SDS011;5068;51.286;7.518;2022-07-05T03:38:01;1.33;;;1.03;;
10056;SDS011;5068;51.286;7.518;2022-07-05T03:39:34;1.33;;;0.90;;
10056;SDS011;5068;51.286;7.518;2022-07-05T03:41:08;1.70;;;1.17;;
10056;SDS011;5068;51.286;7.518;2022-07-05T03:42:41;1.83;;;1.30;;
10056;SDS011;5068;51.286;7.518;2022-07-05T03:44:15;1.27;;;1.17;;
10056;SDS011;5068;51.286;7.518;2022-07-05T03:45:49;1.10;;;1.00;;
10056;SDS011;5068;51.286;7.518;2022-07-05T03:47:23;1.50;;;1.20;;
10056;SDS011;5068;51.286;7.518;2022-07-05T03:48:56;1.20;;;1.10;;
10056;SDS011;5068;51.286;7.518;2022-07-05T03:50:30;2.80;;;1.27;;
10056;SDS011;5068;51.286;7.518;2022-07-05T03:52:03;1.20;;;1.10;;
10056;SDS011;5068;51.286;7.518;2022-07-05T03:53:37;2.50;;;1.43;;
10056;SDS011;5068;51.286;7.518;2022-07-05T03:55:13;1.23;;;1.10;;
10056;SDS011;5068;51.286;7.518;2022-07-05T03:56:46;1.23;;;1.10;;
10056;SDS011;5068;51.286;7.518;2022-07-05T03:58:20;1.63;;;1.37;;
10056;SDS011;5068;51.286;7.518;2022-07-05T03:59:54;1.00;;;1.00;;
10056;SDS011;5068;51.286;7.518;2022-07-05T04:01:29;2.23;;;1.03;;
10056;SDS011;5068;51.286;7.518;2022-07-05T04:03:03;1.80;;;1.10;;
10056;SDS011;5068;51.286;7.518;2022-07-05T04:04:37;1.37;;;1.20;;
10056;SDS011;5068;51.286;7.518;2022-07-05T04:06:11;1.40;;;1.10;;
10056;SDS011;5068;51.286;7.518;2022-07-05T04:07:49;1.00;;;1.00;;
10056;SDS011;5068;51.286;7.518;2022-07-05T04:09:27;2.17;;;1.10;;
10056;SDS011;5068;51.286;7.518;2022-07-05T04:11:01;1.33;;;1.20;;
10056;SDS011;5068;51.286;7.518;2022-07-05T04:12:36;1.90;;;1.23;;
10056;SDS011;5068;51.286;7.518;2022-07-05T04:14:14;1.30;;;1.20;;
10056;SDS011;5068;51.286;7.518;2022-07-05T04:15:49;1.70;;;1.30;;
10056;SDS011;5068;51.286;7.518;2022-07-05T04:17:26;1.43;;;1.00;;
10056;SDS011;5068;51.286;7.518;2022-07-05T04:19:01;1.80;;;1.30;;
10056;SDS011;5068;51.286;7.518;2022-07-05T04:20:38;1.77;;;1.20;;
10056;SDS011;5068;51.286;7.518;2022-07-05T04:22:14;1.10;;;1.00;;
10056;SDS011;5068;51.286;7.518;2022-07-05T04:23:48;1.23;;;1.17;;
10056;SDS011;5068;51.286;7.518;2022-07-05T04:25:24;1.30;;;1.20;;
10056;SDS011;5068;51.286;7.518;2022-07-05T04:27:05;1.80;;;1.10;;
10056;SDS011;5068;51.286;7.518;2022-07-05T04:28:38;1.30;;;1.20;;
10056;SDS011;5068;51.286;7.518;2022-07-05T04:30:15;2.60;;;1.20;;
10056;SDS011;5068;51.286;7.518;2022-07-05T04:31:51;1.57;;;1.20;;
10056;SDS011;5068;51.286;7.518;2022-07-05T04:33:26;2.67;;;1.27;;
10056;SDS011;5068;51.286;7.518;2022-07-05T04:35:01;2.27;;;1.20;;
10056;SDS011;5068;51.286;7.518;2022-07-05T04:36:35;1.50;;;1.20;;
10056;SDS011;5068;51.286;7.518;2022-07-05T04:38:12;2.23;;;1.40;;
10056;SDS011;5068;51.286;7.518;2022-07-05T04:39:47;1.30;;;1.20;;
10056;SDS011;5068;51.286;7.518;2022-07-05T04:41:21;1.27;;;1.17;;
10056;SDS011;5068;51.286;7.518;2022-07-05T04:42:55;1.63;;;1.53;;
10056;SDS011;5068;51.286;7.518;2022-07-05T04:44:28;1.20;;;1.10;;
10056;SDS011;5068;51.286;7.518;2022-07-05T04:46:02;4.50;;;1.40;;
10056;SDS011;5068;51.286;7.518;2022-07-05T04:47:37;2.67;;;1.30;;
10056;SDS011;5068;51.286;7.518;2022-07-05T04:49:12;2.50;;;1.40;;
10056;SDS011;5068;51.286;7.518;2022-07-05T04:50:46;2.10;;;1.37;;
10056;SDS011;5068;51.286;7.518;2022-07-05T04:52:20;2.90;;;1.50;;
10056;SDS011;5068;51.286;7.518;2022-07-05T04:53:54;1.13;;;1.13;;
10056;SDS011;5068;51.286;7.518;2022-07-05T04:55:28;2.10;;;1.60;;
10056;SDS011;5068;51.286;7.518;2022-07-05T04:57:02;1.50;;;1.40;;
10056;SDS011;5068;51.286;7.518;2022-07-05T04:58:36;2.47;;;1.77;;
10056;SDS011;5068;51.286;7.518;2022-07-05T05:00:10;1.40;;;1.30;;
10056;SDS011;5068;51.286;7.518;2022-07-05T05:01:47;1.73;;;1.30;;
10056;SDS011;5068;51.286;7.518;2022-07-05T05:03:21;2.13;;;1.50;;
10056;SDS011;5068;51.286;7.518;2022-07-05T05:04:56;2.57;;;1.47;;
10056;SDS011;5068;51.286;7.518;2022-07-05T05:06:28;1.43;;;1.33;;
10056;SDS011;5068;51.286;7.518;2022-07-05T05:08:02;1.90;;;1.80;;
10056;SDS011;5068;51.286;7.518;2022-07-05T05:09:35;2.87;;;1.70;;
10056;SDS011;5068;51.286;7.518;2022-07-05T05:11:09;2.30;;;1.50;;
10056;SDS011;5068;51.286;7.518;2022-07-05T05:12:42;1.57;;;1.40;;
10056;SDS011;5068;51.286;7.518;2022-07-05T05:14:16;2.83;;;1.50;;
10056;SDS011;5068;51.286;7.518;2022-07-05T05:15:49;1.70;;;1.40;;
10056;SDS011;5068;51.286;7.518;2022-07-05T05:17:23;1.60;;;1.50;;
10056;SDS011;5068;51.286;7.518;2022-07-05T05:18:56;1.83;;;1.53;;
10056;SDS011;5068;51.286;7.518;2022-07-05T05:20:31;2.13;;;1.50;;
10056;SDS011;5068;51.286;7.518;2022-07-05T05:22:11;1.90;;;1.70;;
10056;SDS011;5068;51.286;7.518;2022-07-05T05:23:45;1.60;;;1.37;;
10056;SDS011;5068;51.286;7.518;2022-07-05T05:25:18;2.43;;;1.43;;
10056;SDS011;5068;51.286;7.518;2022-07-05T05:26:52;1.63;;;1.53;;
10056;SDS011;5068;51.286;7.518;2022-07-05T05:28:25;1.53;;;1.37;;
10056;SDS011;5068;51.286;7.518;2022-07-05T05:29:59;4.20;;;1.57;;
10056;SDS011;5068;51.286;7.518;2022-07-05T05:31:33;3.23;;;1.50;;
10056;SDS011;5068;51.286;7.518;2022-07-05T05:33:06;3.70;;;1.53;;
10056;SDS011;5068;51.286;7.518;2022-07-05T05:34:40;1.57;;;1.23;;
10056;SDS011;5068;51.286;7.518;2022-07-05T05:36:15;1.87;;;1.20;;
10056;SDS011;5068;51.286;7.518;2022-07-05T05:37:49;1.40;;;1.30;;
10056;SDS011;5068;51.286;7.518;2022-07-05T05:39:26;2.23;;;1.50;;
10056;SDS011;5068;51.286;7.518;2022-07-05T05:40:59;1.80;;;1.70;;
10056;SDS011;5068;51.286;7.518;2022-07-05T05:42:33;1.70;;;1.47;;
10056;SDS011;5068;51.286;7.518;2022-07-05T05:44:06;2.10;;;1.60;;
10056;SDS011;5068;51.286;7.518;2022-07-05T05:45:40;2.65;;;1.65;;
10056;SDS011;5068;51.286;7.518;2022-07-05T05:47:14;3.13;;;1.83;;
10056;SDS011;5068;51.286;7.518;2022-07-05T05:48:48;2.10;;;1.50;;
10056;SDS011;5068;51.286;7.518;2022-07-05T05:50:22;4.50;;;1.80;;
10056;SDS011;5068;51.286;7.518;2022-07-05T05:51:59;2.42;;;1.70;;
10056;SDS011;5068;51.286;7.518;2022-07-05T05:53:32;3.03;;;1.63;;
10056;SDS011;5068;51.286;7.518;2022-07-05T05:55:05;2.45;;;1.58;;
10056;SDS011;5068;51.286;7.518;2022-07-05T05:56:39;2.45;;;1.85;;
10056;SDS011;5068;51.286;7.518;2022-07-05T05:58:13;2.53;;;2.00;;
10056;SDS011;5068;51.286;7.518;2022-07-05T05:59:49;2.45;;;1.58;;
10056;SDS011;5068;51.286;7.518;2022-07-05T06:01:23;3.20;;;1.60;;
10056;SDS011;5068;51.286;7.518;2022-07-05T06:02:56;5.38;;;1.60;;
10056;SDS011;5068;51.286;7.518;2022-07-05T06:04:30;2.13;;;1.90;;
10056;SDS011;5068;51.286;7.518;2022-07-05T06:06:04;2.78;;;1.95;;
10056;SDS011;5068;51.286;7.518;2022-07-05T06:07:45;3.83;;;1.83;;
10056;SDS011;5068;51.286;7.518;2022-07-05T06:09:21;1.63;;;1.52;;
10056;SDS011;5068;51.286;7.518;2022-07-05T06:10:58;1.85;;;1.67;;
10056;SDS011;5068;51.286;7.518;2022-07-05T06:12:35;3.38;;;1.58;;
10056;SDS011;5068;51.286;7.518;2022-07-05T06:14:08;2.95;;;1.83;;
10056;SDS011;5068;51.286;7.518;2022-07-05T06:15:43;2.67;;;1.80;;
10056;SDS011;5068;51.286;7.518;2022-07-05T06:17:16;2.40;;;1.77;;
10056;SDS011;5068;51.286;7.518;2022-07-05T06:18:50;3.20;;;1.80;;
10056;SDS011;5068;51.286;7.518;2022-07-05T06:20:24;1.73;;;1.38;;
10056;SDS011;5068;51.286;7.518;2022-07-05T06:22:00;3.63;;;2.03;;
10056;SDS011;5068;51.286;7.518;2022-07-05T06:23:36;1.50;;;1.40;;
10056;SDS011;5068;51.286;7.518;2022-07-05T06:25:09;2.33;;;1.63;;
10056;SDS011;5068;51.286;7.518;2022-07-05T06:26:58;1.95;;;1.52;;
10056;SDS011;5068;51.286;7.518;2022-07-05T06:28:31;1.83;;;1.45;;
10056;SDS011;5068;51.286;7.518;2022-07-05T06:30:05;2.60;;;1.50;;
10056;SDS011;5068;51.286;7.518;2022-07-05T06:31:41;1.83;;;1.50;;
10056;SDS011;5068;51.286;7.518;2022-07-05T06:33:15;4.15;;;1.55;;
10056;SDS011;5068;51.286;7.518;2022-07-05T06:34:49;2.08;;;1.50;;
10056;SDS011;5068;51.286;7.518;2022-07-05T06:36:22;3.05;;;1.55;;
10056;SDS011;5068;51.286;7.518;2022-07-05T06:37:57;2.35;;;1.30;;
10056;SDS011;5068;51.286;7.518;2022-07-05T06:39:34;1.40;;;1.30;;
10056;SDS011;5068;51.286;7.518;2022-07-05T06:41:08;2.72;;;1.42;;
10056;SDS011;5068;51.286;7.518;2022-07-05T06:42:41;1.85;;;1.60;;
10056;SDS011;5068;51.286;7.518;2022-07-05T06:44:15;2.83;;;1.45;;
10056;SDS011;5068;51.286;7.518;2022-07-05T06:46:06;1.70;;;1.40;;
10056;SDS011;5068;51.286;7.518;2022-07-05T06:47:40;1.98;;;1.33;;
10056;SDS011;5068;51.286;7.518;2022-07-05T06:49:13;2.38;;;1.42;;
10056;SDS011;5068;51.286;7.518;2022-07-05T06:50:47;4.05;;;1.58;;
10056;SDS011;5068;51.286;7.518;2022-07-05T06:52:20;2.83;;;1.67;;
10056;SDS011;5068;51.286;7.518;2022-07-05T06:53:54;2.75;;;1.40;;
10056;SDS011;5068;51.286;7.518;2022-07-05T06:55:49;2.78;;;1.35;;
10056;SDS011;5068;51.286;7.518;2022-07-05T06:57:27;2.00;;;1.42;;
10056;SDS011;5068;51.286;7.518;2022-07-05T06:59:02;2.50;;;1.50;;
10056;SDS011;5068;51.286;7.518;2022-07-05T07:00:39;2.85;;;1.30;;
10056;SDS011;5068;51.286;7.518;2022-07-05T07:02:33;4.53;;;1.35;;
10056;SDS011;5068;51.286;7.518;2022-07-05T07:04:07;0.98;;;0.95;;
10056;SDS011;5068;51.286;7.518;2022-07-05T07:05:50;3.03;;;1.15;;
10056;SDS011;5068;51.286;7.518;2022-07-05T07:07:33;3.03;;;1.52;;
10056;SDS011;5068;51.286;7.518;2022-07-05T07:09:24;3.45;;;1.40;;
10056;SDS011;5068;51.286;7.518;2022-07-05T07:10:59;2.25;;;1.20;;
10056;SDS011;5068;51.286;7.518;2022-07-05T07:12:32;1.73;;;1.02;;
10056;SDS011;5068;51.286;7.518;2022-07-05T07:14:06;1.08;;;0.98;;
10056;SDS011;5068;51.286;7.518;2022-07-05T07:15:39;1.75;;;0.88;;
10056;SDS011;5068;51.286;7.518;2022-07-05T07:17:16;1.95;;;0.80;;
10056;SDS011;5068;51.286;7.518;2022-07-05T07:18:50;0.98;;;0.70;;
10056;SDS011;5068;51.286;7.518;2022-07-05T07:20:43;2.05;;;0.82;;
10056;SDS011;5068;51.286;7.518;2022-07-05T07:22:16;7.70;;;0.90;;
10056;SDS011;5068;51.286;7.518;2022-07-05T07:23:50;1.55;;;0.98;;
10056;SDS011;5068;51.286;7.518;2022-07-05T07:25:23;2.42;;;0.95;;
10056;SDS011;5068;51.286;7.518;2022-07-05T07:26:58;4.13;;;1.10;;
10056;SDS011;5068;51.286;7.518;2022-07-05T07:28:35;0.68;;;0.68;;
10056;SDS011;5068;51.286;7.518;2022-07-05T07:30:09;2.65;;;0.95;;
10056;SDS011;5068;51.286;7.518;2022-07-05T07:31:45;1.50;;;0.90;;
10056;SDS011;5068;51.286;7.518;2022-07-05T07:33:19;1.73;;;0.90;;
10056;SDS011;5068;51.286;7.518;2022-07-05T07:35:12;2.45;;;1.50;;
10056;SDS011;5068;51.286;7.518;2022-07-05T07:36:46;1.63;;;1.10;;
10056;SDS011;5068;51.286;7.518;2022-07-05T07:38:20;2.85;;;1.10;;
10056;SDS011;5068;51.286;7.518;2022-07-05T07:39:54;0.95;;;0.75;;
10056;SDS011;5068;51.286;7.518;2022-07-05T07:41:28;1.63;;;1.00;;
10056;SDS011;5068;51.286;7.518;2022-07-05T07:43:02;3.92;;;0.90;;
10056;SDS011;5068;51.286;7.518;2022-07-05T07:44:41;1.38;;;0.80;;
10056;SDS011;5068;51.286;7.518;2022-07-05T07:46:15;5.60;;;0.98;;
10056;SDS011;5068;51.286;7.518;2022-07-05T07:47:48;2.28;;;0.70;;
10056;SDS011;5068;51.286;7.518;2022-07-05T07:49:22;3.83;;;0.90;;
10056;SDS011;5068;51.286;7.518;2022-07-05T07:50:55;2.22;;;0.85;;
10056;SDS011;5068;51.286;7.518;2022-07-05T07:52:29;1.42;;;0.80;;
10056;SDS011;5068;51.286;7.518;2022-07-05T07:54:04;1.85;;;0.85;;
10056;SDS011;5068;51.286;7.518;2022-07-05T07:55:45;0.77;;;0.70;;
10056;SDS011;5068;51.286;7.518;2022-07-05T07:57:20;1.52;;;0.68;;
10056;SDS011;5068;51.286;7.518;2022-07-05T07:58:56;3.13;;;0.80;;
10056;SDS011;5068;51.286;7.518;2022-07-05T08:00:30;2.80;;;1.02;;
10056;SDS011;5068;51.286;7.518;2022-07-05T08:02:04;0.73;;;0.70;;
10056;SDS011;5068;51.286;7.518;2022-07-05T08:03:39;5.05;;;0.65;;
10056;SDS011;5068;51.286;7.518;2022-07-05T08:05:14;1.23;;;0.77;;
10056;SDS011;5068;51.286;7.518;2022-07-05T08:06:47;1.10;;;0.80;;
10056;SDS011;5068;51.286;7.518;2022-07-05T08:08:20;1.75;;;0.82;;
10056;SDS011;5068;51.286;7.518;2022-07-05T08:09:54;2.17;;;0.68;;
10056;SDS011;5068;51.286;7.518;2022-07-05T08:11:28;1.90;;;0.70;;
10056;SDS011;5068;51.286;7.518;2022-07-05T08:13:01;1.23;;;0.52;;
10056;SDS011;5068;51.286;7.518;2022-07-05T08:14:36;1.08;;;0.63;;
10056;SDS011;5068;51.286;7.518;2022-07-05T08:16:10;1.70;;;0.65;;
10056;SDS011;5068;51.286;7.518;2022-07-05T08:17:44;0.45;;;0.40;;
10056;SDS011;5068;51.286;7.518;2022-07-05T08:19:31;2.20;;;0.80;;
10056;SDS011;5068;51.286;7.518;2022-07-05T08:21:22;0.98;;;0.50;;
10056;SDS011;5068;51.286;7.518;2022-07-05T08:23:09;2.28;;;0.93;;
10056;SDS011;5068;51.286;7.518;2022-07-05T08:24:42;1.15;;;0.50;;
10056;SDS011;5068;51.286;7.518;2022-07-05T08:26:16;2.25;;;0.60;;
10056;SDS011;5068;51.286;7.518;2022-07-05T08:27:50;0.70;;;0.50;;
10056;SDS011;5068;51.286;7.518;2022-07-05T08:29:24;1.83;;;0.60;;
10056;SDS011;5068;51.286;7.518;2022-07-05T08:30:59;0.75;;;0.57;;
10056;SDS011;5068;51.286;7.518;2022-07-05T08:32:34;0.60;;;0.60;;
10056;SDS011;5068;51.286;7.518;2022-07-05T08:34:08;0.70;;;0.60;;
10056;SDS011;5068;51.286;7.518;2022-07-05T08:35:42;1.05;;;0.68;;
10056;SDS011;5068;51.286;7.518;2022-07-05T08:37:16;1.17;;;0.73;;
10056;SDS011;5068;51.286;7.518;2022-07-05T08:38:50;0.80;;;0.73;;
10056;SDS011;5068;51.286;7.518;2022-07-05T08:40:25;3.83;;;0.60;;
10056;SDS011;5068;51.286;7.518;2022-07-05T08:42:03;1.70;;;0.90;;
10056;SDS011;5068;51.286;7.518;2022-07-05T08:43:41;1.55;;;0.88;;
10056;SDS011;5068;51.286;7.518;2022-07-05T08:45:19;0.93;;;0.60;;
10056;SDS011;5068;51.286;7.518;2022-07-05T08:46:55;1.60;;;0.90;;
10056;SDS011;5068;51.286;7.518;2022-07-05T08:48:30;0.70;;;0.60;;
10056;SDS011;5068;51.286;7.518;2022-07-05T08:50:05;1.42;;;0.65;;
10056;SDS011;5068;51.286;7.518;2022-07-05T08:51:42;0.80;;;0.60;;
10056;SDS011;5068;51.286;7.518;2022-07-05T08:53:17;1.27;;;0.90;;
10056;SDS011;5068;51.286;7.518;2022-07-05T08:54:51;3.00;;;0.80;;
10056;SDS011;5068;51.286;7.518;2022-07-05T08:56:26;2.53;;;1.10;;
10056;SDS011;5068;51.286;7.518;2022-07-05T08:58:19;1.13;;;0.60;;
10056;SDS011;5068;51.286;7.518;2022-07-05T08:59:53;3.55;;;0.80;;
10056;SDS011;5068;51.286;7.518;2022-07-05T09:01:26;0.88;;;0.88;;
10056;SDS011;5068;51.286;7.518;2022-07-05T09:03:05;1.52;;;0.90;;
10056;SDS011;5068;51.286;7.518;2022-07-05T09:04:41;1.25;;;0.60;;
10056;SDS011;5068;51.286;7.518;2022-07-05T09:06:20;1.10;;;0.65;;
10056;SDS011;5068;51.286;7.518;2022-07-05T09:07:57;0.70;;;0.60;;
10056;SDS011;5068;51.286;7.518;2022-07-05T09:09:32;1.00;;;0.57;;
10056;SDS011;5068;51.286;7.518;2022-07-05T09:11:11;0.82;;;0.45;;
10056;SDS011;5068;51.286;7.518;2022-07-05T09:12:46;1.42;;;0.65;;
10056;SDS011;5068;51.286;7.518;2022-07-05T09:14:21;0.60;;;0.60;;
10056;SDS011;5068;51.286;7.518;2022-07-05T09:16:00;0.52;;;0.52;;
10056;SDS011;5068;51.286;7.518;2022-07-05T09:17:41;0.90;;;0.50;;
10056;SDS011;5068;51.286;7.518;2022-07-05T09:19:17;1.65;;;0.90;;
10056;SDS011;5068;51.286;7.518;2022-07-05T09:20:51;1.50;;;0.45;;
10056;SDS011;5068;51.286;7.518;2022-07-05T09:22:49;0.57;;;0.55;;
10056;SDS011;5068;51.286;7.518;2022-07-05T09:24:26;1.13;;;0.50;;
10056;SDS011;5068;51.286;7.518;2022-07-05T09:26:01;0.75;;;0.70;;
10056;SDS011;5068;51.286;7.518;2022-07-05T09:27:36;1.58;;;0.60;;
10056;SDS011;5068;51.286;7.518;2022-07-05T09:29:23;0.47;;;0.47;;
10056;SDS011;5068;51.286;7.518;2022-07-05T09:31:17;1.23;;;0.70;;
10056;SDS011;5068;51.286;7.518;2022-07-05T09:33:01;1.85;;;0.60;;
10056;SDS011;5068;51.286;7.518;2022-07-05T09:34:41;1.30;;;0.70;;
10056;SDS011;5068;51.286;7.518;2022-07-05T09:36:15;3.15;;;0.57;;
10056;SDS011;5068;51.286;7.518;2022-07-05T09:37:48;1.20;;;0.70;;
10056;SDS011;5068;51.286;7.518;2022-07-05T09:39:34;1.27;;;0.90;;
10056;SDS011;5068;51.286;7.518;2022-07-05T09:41:13;1.42;;;0.80;;
10056;SDS011;5068;51.286;7.518;2022-07-05T09:42:49;1.55;;;0.60;;
10056;SDS011;5068;51.286;7.518;2022-07-05T09:44:26;1.75;;;0.52;;
10056;SDS011;5068;51.286;7.518;2022-07-05T09:46:01;1.65;;;0.50;;